Timeline UpdatesTrip UpdatesNews PostsPvt Posts♥♥Travel TipsAdmin PostsConv PostsFollowed PostsChat RequestsBlog PostsPNR Posts

Disclaimer
Search
 
 
Sat Oct 25, 2014 16:42:51 ISTHomeTrainsΣChainsAtlasPNRForumGalleryNewsFAQTripsMembersLoginFeedback
No Recent News for this Train
Other Trains in the News **new
Latest...
.
Fri Jan 17, 2014 (09:13PM)
⇐ Return Journey: Train# 13049

13050/Amritsar-Howrah Express

Time-Table HAS CHANGED.
Sep 03 2014 (10:10AM)
Change Departure Station:
Change Arrival Station:
Post a Train Travel TipPost a Train Travel Tip **new
Post a Comment/Question/Picture/VideoPost a Comment/Question/Picture/Video
Pantry/Catering
✕ NO Pantry Car
✕ NO Catering
RSA - Rake Sharing
no RSA
Rake/Coach Composition
LOCO-HCPV-SLR-GEN-B1-S1-S2-S3-S4-GEN-GEN-GEN-GEN-GEN-GEN-MILITARY-SLR
Loco
WAM-4/ WAG-5 [HWH-MGS] LDH WDM2/3A/3D [MGS-MB] GZB WAP-5 [...
Read more...
MB-ASR].
News    PNR    Forum    Time-Table    Availability    Fare Chart    Map    Arr/Dep History    Trips    Gallery    ΣChains    X/O    Timeline    
Travel Time: 1h 53m    6 halts    Distance: 77 km    Avg Speed: 40 km/hr
Type: Mail/Express
Zone: ER/Eastern
Departs @ 10:28 (Avg 35m late)
Platform# ???
SMTWTFS
Sitarampur Junction/STN 
Arrives @ 12:21 (Avg 25m late)
Platform# ???
SMTWTFS
Mankar/MNAE 

6 halts. 17 intermediate Stations between Sitarampur Junction and Mankar

Show ALL intermediate Stations  Show Old Time-Table

#TrkCodeStation NameX/OArrivesAvgDepartsAvgHaltPFDay#KmSpeedElevZoneAddress
1/==/ASRAmritsar Junction (5)  -18:10+451-1701.192233mNRAmritsar 143002, Punjab
2/==/BEASBeas Junction (2)X  18:38+1618:40+162m21-1658.061238mNRBeas, Punjab
3/==/KREKartarpur (2)X  19:01+1419:03+142m11-1636.673236mNRKartarpur, Punjab
4/==/JUCJalandhar City Junction (5)X  19:15+1519:23+158m21-1621.922239mNRJalandhar 144001, Punjab
5/==/JRCJalandhar Cantt. Junction (3)X  19:36+919:38+92m21-1617.165239mNRNear Rama Mandi, Punjab
6/==/PGWPhagwara Junction (3)X  19:53+919:55+102m11-1600.875245mNRPhagwara, Punjab
7/==/PHRPhillaur Junction (3)X  20:13+1020:15+102m11-1578.252246mNRPhillaur, Punjab
8/==/LDHLudhiana Junction (7)X  20:30+1120:40+1410m11-1565.251246mNRLudhiana 141001, Punjab
9/==/KNNKhanna (3)X  21:30+621:32+92m11-1522.361269mNRNH 1, Punjab
10/==/GVGMandi Gobindgarh (2)X  21:40+1021:42+102m11-1514.253268mNRMandi Gobindgarh, Punjab
11/==/SIRSirhind Junction (3)X  21:53+921:55+92m11-1504.483271mNRSirhind, Punjab
12/==/RPJRajpura Junction (3)X  22:12 22:13+1222:14+132 1m21-1479.656272mNRNH-1, Punjab
13/==/UBCAmbala City (3)  22:35 22:36+922:37+102 1m11-1459.120273mNRNH-1, Haryana
14/==/UMBAmbala Cantt. Junction (7)X  23:00+523:10+610m11-1451.581278mNRAmbala 133001, Haryana
15/==/JUDWJagadhri Workshop (2)  23:43 23:44+1123:45+122 1m11-1405.550280mNRRailway Workshop Road, Haryana
16/==/JUDYamunanagar-Jagadhri (3)X  23:51+1223:53+142m21-1400.543275mNRYamunanagar, Haryana
17/==/SRESaharanpur Junction (6)X  00:35+500:55+320m32-1370.465276mNRSaharanpur, Uttar Pradesh
18/==/RKRoorkee (3)X  01:25 01:27+1301:27 01:32+132 5m12-1335.759264mNRRoorkee - 247667, Uttarakhand
19/==/LRJLaksar Junction (4)X  01:50+1501:55+145m12-1317.972238mNRLaksar, Uttarakhand
20/==/NBDNajibabad Junction (3)X  02:30+1502:35+155m12-1276.062269mNRNajibabad, Uttar Pradesh
21/==/MBMoradabad Junction (7)  04:10+1204:20+1910m32-1177.055201mNRMoradabad, Uttar Pradesh
22|--|RJKRaja Ka SahaspurX  04:48 04:46+2504:50 04:48+272m--2-1153.241196mNRBilari, Uttar Pradesh
23|--|CHChandausi Junction (3)  05:20 05:17+2505:25 05:22+265m--2-1133.348193mNRChandausi, Uttar Pradesh
24|--|AOAonla (2)06:08 06:15+2106:10 06:17+232m--2-1091.132176mNRDist. Bareilly, Uttar Pradesh
25|--|CHTIChanehti Junction new halt!!X  07:07+3607:09+292m--2-1064.560168mNRBareilly, Uttar Pradesh
26/==/PMRPitambarpur (3)X  07:33 07:25+2807:35 07:27+292m--2-1048.472171mNRPitambarpur, Uttar Pradesh
27/==/TLHTilhar  07:52 07:54+3207:54 07:56+332m--2-1015.930163mNRTilhar, Uttar Pradesh
28/==/SPNShahjahanpur Junction (3)X  08:32+1608:37+175m--2-997.871156mNRShahjahanpur, Uttar Pradesh
29/==/AJIAnjhi Shahabad  09:01 09:03+2509:03 09:05+252m--2-967.077148mNRAnjhi Shahabad, Uttar Pradesh
30/==/HRIHardoi (5)X  09:28 09:30+2609:30 09:35+252 5m32-934.879146mNRHardoi, Uttar Pradesh
31/==/BLMBalamau Junction (4)X  10:00+2610:02+262m--2-901.758139mNRBalamau, Uttar Pradesh
32/==/SANSandila (3)O  10:23+2610:25+262m--2-881.447132mNRSandila, Uttar Pradesh
33/==/AMGAlamnagar (3)  11:18+1911:20+212m22-839.917126mNRLucknow, Uttar Pradesh
34/==/LKOLucknow Charbagh NR (9)  11:45+1412:10+1525m42-832.959123mNR226004, Uttar Pradesh
35%==%HGHHaidergarh (2)X  13:07 13:08+2513:09+272 1m12-776.244116mNRState Highway 13, Uttar Pradesh
36%==%AKJAkbarGanj (1)  13:31 13:32+2313:33+272 1m12-759.276112mNRSH 31, Uttar Pradesh
37%==%NHHNihalgarh (3)  13:45+3713:47+402m12-744.071108mNRJagdishpur, Uttar Pradesh
38%==%MFKAMusafir Khana (3)  14:02 14:03+4914:04+512 1m12-725.149105mNRMusfirKhana, Uttar Pradesh
39/==%SLNSultanpur Junction (3)X  14:43+5314:48+1:015m22-693.57399mNRSultanpur., Uttar Pradesh
40%==%LBALambhua (1)  15:06+1:1615:08+1:162m12-671.65797mNRLambhua, Uttar Pradesh
41%==%KEPRKoiripur (1)  15:25 15:26+1:1615:27+1:172 1m12-654.48096mNRNational Highway 56, Uttar Pradesh
42%==%HRPGHarpalGanj (1)  15:35+1:2115:37+1:242m12-643.74490mNRNational Highway 56, Uttar Pradesh
43%==/SKNSri Krishna Nagar (2)X  15:47 15:48+1:2315:49+1:232 1m12-635.75892mNRBadlapur, Uttar Pradesh
44/==/JOPJaunpur City (3)X  16:18+1:2216:20+1:222m12-607.72187mNRJaunpur, Uttar Pradesh
45/==/ZBDZafarabad Junction (4)X  16:38+1:1716:40+1:182m12-601.42583mNRNational Highway 56, Uttar Pradesh
46/==/KSFKhalispur (2)X  17:37+4317:39+432m--2-578.12683mNRPhulpur, Uttar Pradesh
47/==/PDRDPindra Road (2)  17:47 17:48-17:49-2 1m--2-574.22581mNRSatomahua-Mangari Rd, Uttar Pradesh
48/==/BTPBabatpur (2)X  18:01 18:02+3418:03+362 1m--2-568.82784mNRSatomahua-Mangari Rd, Uttar Pradesh
49/==/SOPShivpur (3)  18:32+2218:34+252m--2-555.81681mNRVaranasi, Uttar Pradesh
50/==/BSBVaranasi Junction (9)X  18:55+2219:15+2420m62-550.22382mNRVaranasi 221002, Uttar Pradesh
51/==/KEIKashi (3)X  19:29+2519:31+262m--2-544.91385mNRVaranasi, Uttar Pradesh
52/==/MGSMughal Sarai Junction (8)X20:20+1320:40+1620m12-533.94083mECRDistt: Chandauli Pin 232101, Uttar Pradesh
53/==/KCAKuchman (2)  20:56+2120:58+222m--2-523.37679mECRKuchman, Uttar Pradesh
54/==/SLDSakaldiha (2)X  21:04+2421:06+262m--2-515.77581mECRState Highway 69, Uttar Pradesh
55/==/DHADheena  21:17+2821:19+312m--2-502.17474mECRDheena, Uttar Pradesh
56/==/ZNAZamania (2)X  21:29+3221:31+322m--2-489.76277mECRGhazipur, Uttar Pradesh
57/==/DLNDildarnagar Junction (2)X  21:44+3521:46+372m--2-476.26772mECRDildarnagar, Uttar Pradesh
58/==/BWHBhadaura (2)XO  21:52 21:53+3621:54 21:55+372m--2-468.47069mECRGhazipur, Uttar Pradesh
59/==/GMRGahmar (2)  22:02+3722:04+382m--2-460.24668mECRDistt: Ghazipur, Uttar Pradesh
60/==/CSAChausa (2)  22:16+3722:18+382m--2-450.96668mECRState Highway 14, Bihar
61/==/BXRBuxar (3)X  22:28+3722:32+374m--2-440.08967mECRBuxar, Bihar
62/==/DUREDumraon (3)  22:43+4222:45+432m--2-423.76570mECRDumraon, Bihar
63/==/TWGTwining GanjX  22:52+4422:54+442m--2-416.16370mECRArrah Buxar Rd, Bihar
64/==/RPRRaghunathpur (4)XO  23:02+4423:04+472m--2-407.76669mECRRaghunathpur, Bihar
65/==/BYNBanahi (2)  23:12+4623:14+462m--2-398.95967mECRBanahi, Bihar
66/==/BEABihiya (3)X  23:20+4623:22+502m--2-392.94167mECRBehea, Bihar
67/==/ARAAra Junction (3)X  23:53+3923:58+395m--2-371.58363mECRDistt: Bhojpur Ph 06182-233411, Bihar
68/==/BTABihta (2)  00:14+5100:16+552m--3-349.31762mECRDistt: Patna, Bihar
69/==/DNRDanapur (5)X  01:18+3101:28+3810m--3-332.01258mECRKhagaul, Bihar
70/==/PNBEPatna Junction (10)X  02:15+2402:30+2815m--3-322.64257mECRPatna 800001, Bihar
71/==/PNCPatna Saheb (3)  02:44+3802:46+402m--3-312.76159mECRPatna 800008, Bihar
72/==/FUTFatwa (6)X  02:58+4603:00+482m--3-300.57053mECRPatna, Bihar
73/==/BKPBakhtiyarpur Junction (5)  03:20+4703:22+482m--3-277.29151mECRPatna, Bihar
74/==/BARHBarh (3)X  03:34+5303:36+552m--3-259.16449mECRBarh, Bihar
75/==/MKAMokama Junction (4)O  04:00+5604:02+562m--3-233.36348mECRPatna, Bihar
76/==/HTZHathidah Junction (2)  04:10+5904:12+592m13-225.03550mECRMusahari, Bihar
77/==/BRYABarhiya (3)  04:28+5304:30+532m--3-215.66547mECRBarahiya, Bihar
78/==/LKRLuckeesarai Junction (2)X  04:44+5604:46+562m--3-200.5952mECRLakhisarai, Bihar
79/==/KIULKiul Junction (5)X  04:55+5505:00+545m--3-199.12053mECRDist. Lakhisarai, Bihar
80/==/MNPMananpur (2)X  05:21+4805:23+492m--3-192.210257mECRState Highway 18, Bihar
81/==/JMUJamui (2)X  05:34 05:35+5205:36 05:37+522m--3-171.87381mECRState Highway 72, Bihar
82/==/GHRGidhaur (2)X  05:49+5405:51+552m--3-157.39106mECRState Highway 18, Bihar
83/==/JAJJhajha (4)  07:07+1707:17+1910m--3-145.875143mECRJhajha, Bihar
84/==/STLSimultala (2)X  07:32+2907:34+292m--3-127.259247mERSimultala, Bihar
85/==/JSMEJasidih Junction (5)  08:00+3508:05+355m--3-101.875271mERJasidih, Jharkhand
86/==/MUWMathurapur (2)  08:19+3808:21+372m--3-84.354261mERDeoghar, Jharkhand
87/==/MDPMadhupur Junction (4)X  08:34+3208:44+2810m33-72.781254mER06432-224478, Jharkhand
88/==/VDSVidyasagar (2)X  09:02+3409:04+372m--3-48.567250mERJamtara, Jharkhand
89/==/JMTJamtara (2)X  09:20+4309:22+442m23-30.648201mERJamtara, Jharkhand
90/==/CRJChittaranjan (3)X  09:40+3609:42+422m23-16.355182mERMihijam, Jharkhand
91/==/RNPRRupnarayanpur (3)XO  09:47+4209:49+412m--3-11.719191mERChittaranjan, West Bengal
92/==/STNSitarampur Junction (5)»XO  10:26+2410:28+352m--30.024139mERG T Rd Before Asansol, West Bengal
93/==/ASNAsansol Junction (7)X  10:50+3011:05+2915m338.872113mERDist - Bardhaman, West Bengal
94/==/RNGRaniGanj (4)X  11:20+3111:22+312m--326.94092mERRaniganj, West Bengal
95/==/UDLAndal Junction (6)  11:33+2911:35+292m--334.28286mERAndal, West Bengal
96/==/OYRWaria (4)  11:41+2811:43+282m--342.453 ERDurgapur, West Bengal
97/==/DGRDurgapur (5)  11:53+3011:57+284m--351.29471mERDurgapur, West Bengal
98/==/PANPanagarh (4)X  12:07+3012:09+302m--366.85170mERKaksa, West Bengal
99/==/MNAEMankar (4)•  12:21+2512:23+252m--377.04965mERMankur, West Bengal
100/==/KANKhana Junction (5)X  12:53+2212:55+232m--3101.74942mERDist - Bardhaman, West Bengal
101/==/BWNBarddhaman Junction (8)X  13:11+1613:16+175m--3114.76834mERDist - Barddhaman, West Bengal
102/==/BDCBandel Junction (7)  14:15+2614:23+278m--3182.04514mERdist - HOOGHLY, West Bengal
103/==/CNSChuchura (3)  14:28+3014:30+222m--3185.84515mERDist - HOOGHLY - 712102, West Bengal
104/==/CGRChandan Nagar (3)X  14:34+3114:36+312m--3188.84016mERDist -HOOGHLY - 712136, West Bengal
105/==/SHESeoraphuli Junction (6)  14:52+2814:54+292m--3199.45113mERBaidyabati, West Bengal
106/==/SRPSerampore (4)  14:57+2814:59+292m--3201.92511mERdist - hooghly, West Bengal
107/==/HWHKolkata Howrah Junction (23)  15:45+23-113221.5-10mERHowrah 711101, West Bengal
Scroll to Top
Scroll to Bottom